sensor_id;sensor_type;location;lat;lon;timestamp;pressure;altitude;pressure_sealevel;temperature;humidity
51245;BME280;37840;47.562;18.738;2023-03-31T00:01:27;99370.41;;;10.65;95.09
51245;BME280;37840;47.562;18.738;2023-03-31T00:03:54;99366.03;;;10.64;94.89
51245;BME280;37840;47.562;18.738;2023-03-31T00:06:34;99363.50;;;10.63;95.17
51245;BME280;37840;47.562;18.738;2023-03-31T00:09:04;99367.69;;;10.54;95.75
51245;BME280;37840;47.562;18.738;2023-03-31T00:11:31;99356.13;;;10.55;95.58
51245;BME280;37840;47.562;18.738;2023-03-31T00:13:57;99361.91;;;10.60;94.95
51245;BME280;37840;47.562;18.738;2023-03-31T00:16:23;99359.97;;;10.62;94.60
51245;BME280;37840;47.562;18.738;2023-03-31T00:18:50;99367.38;;;10.58;94.70
51245;BME280;37840;47.562;18.738;2023-03-31T00:21:18;99366.28;;;10.61;94.29
51245;BME280;37840;47.562;18.738;2023-03-31T00:24:08;99371.81;;;10.58;94.68
51245;BME280;37840;47.562;18.738;2023-03-31T00:26:34;99359.25;;;10.60;94.06
51245;BME280;37840;47.562;18.738;2023-03-31T00:29:02;99364.56;;;10.60;93.39
51245;BME280;37840;47.562;18.738;2023-03-31T00:31:28;99362.06;;;10.58;93.18
51245;BME280;37840;47.562;18.738;2023-03-31T00:33:55;99365.66;;;10.57;92.78
51245;BME280;37840;47.562;18.738;2023-03-31T00:36:21;99355.88;;;10.58;92.23
51245;BME280;37840;47.562;18.738;2023-03-31T00:38:59;99361.91;;;10.60;91.74
51245;BME280;37840;47.562;18.738;2023-03-31T00:41:26;99359.41;;;10.58;92.03
51245;BME280;37840;47.562;18.738;2023-03-31T00:46:30;99352.63;;;10.54;92.03
51245;BME280;37840;47.562;18.738;2023-03-31T00:48:58;99355.13;;;10.45;92.93
51245;BME280;37840;47.562;18.738;2023-03-31T00:51:27;99350.44;;;10.48;92.71
51245;BME280;37840;47.562;18.738;2023-03-31T00:53:59;99344.97;;;10.38;92.90
51245;BME280;37840;47.562;18.738;2023-03-31T00:56:32;99347.50;;;10.40;92.70
51245;BME280;37840;47.562;18.738;2023-03-31T00:59:02;99351.00;;;10.40;92.47
51245;BME280;37840;47.562;18.738;2023-03-31T01:01:29;99349.53;;;10.36;92.16
51245;BME280;37840;47.562;18.738;2023-03-31T01:03:56;99343.03;;;10.40;92.04
51245;BME280;37840;47.562;18.738;2023-03-31T01:06:24;99343.03;;;10.40;92.02
51245;BME280;37840;47.562;18.738;2023-03-31T01:08:50;99334.06;;;10.30;92.37
51245;BME280;37840;47.562;18.738;2023-03-31T01:11:19;99335.78;;;10.31;91.93
51245;BME280;37840;47.562;18.738;2023-03-31T01:13:46;99335.66;;;10.33;91.33
51245;BME280;37840;47.562;18.738;2023-03-31T01:16:16;99333.00;;;10.33;91.25
51245;BME280;37840;47.562;18.738;2023-03-31T01:18:43;99337.16;;;10.24;91.23
51245;BME280;37840;47.562;18.738;2023-03-31T01:32:34;99338.13;;;10.12;91.21
51245;BME280;37840;47.562;18.738;2023-03-31T01:43:20;99339.06;;;10.11;90.71
51245;BME280;37840;47.562;18.738;2023-03-31T01:46:04;99336.06;;;10.15;90.04
51245;BME280;37840;47.562;18.738;2023-03-31T01:48:47;99335.47;;;10.12;90.11
51245;BME280;37840;47.562;18.738;2023-03-31T01:57:01;99331.34;;;10.08;89.64
51245;BME280;37840;47.562;18.738;2023-03-31T01:59:53;99329.28;;;10.11;89.34
51245;BME280;37840;47.562;18.738;2023-03-31T02:02:27;99332.28;;;10.07;89.65
51245;BME280;37840;47.562;18.738;2023-03-31T02:04:59;99332.28;;;10.07;89.21
51245;BME280;37840;47.562;18.738;2023-03-31T02:07:33;99326.59;;;10.00;89.27
51245;BME280;37840;47.562;18.738;2023-03-31T02:10:03;99336.38;;;9.99;88.83
51245;BME280;37840;47.562;18.738;2023-03-31T02:12:33;99327.16;;;9.92;89.29
51245;BME280;37840;47.562;18.738;2023-03-31T02:15:00;99325.72;;;9.88;89.72
51245;BME280;37840;47.562;18.738;2023-03-31T02:17:28;99324.50;;;9.92;89.41
51245;BME280;37840;47.562;18.738;2023-03-31T02:20:02;99319.78;;;9.85;89.71
51245;BME280;37840;47.562;18.738;2023-03-31T02:22:34;99327.28;;;9.91;89.18
51245;BME280;37840;47.562;18.738;2023-03-31T02:25:02;99325.09;;;9.85;89.10
51245;BME280;37840;47.562;18.738;2023-03-31T02:27:40;99331.69;;;9.79;89.04
51245;BME280;37840;47.562;18.738;2023-03-31T02:30:08;99323.13;;;9.75;89.46
51245;BME280;37840;47.562;18.738;2023-03-31T02:32:42;99320.34;;;9.77;89.36
51245;BME280;37840;47.562;18.738;2023-03-31T02:35:19;99313.09;;;9.79;88.93
51245;BME280;37840;47.562;18.738;2023-03-31T02:37:47;99309.13;;;9.73;89.23
51245;BME280;37840;47.562;18.738;2023-03-31T02:40:21;99304.31;;;9.78;88.64
51245;BME280;37840;47.562;18.738;2023-03-31T02:42:48;99312.28;;;9.78;88.45
51245;BME280;37840;47.562;18.738;2023-03-31T02:48:06;99313.22;;;9.77;87.96
51245;BME280;37840;47.562;18.738;2023-03-31T02:53:42;99309.38;;;9.82;87.30
51245;BME280;37840;47.562;18.738;2023-03-31T03:07:07;99298.31;;;9.64;87.92
51245;BME280;37840;47.562;18.738;2023-03-31T03:09:46;99296.50;;;9.64;87.49
51245;BME280;37840;47.562;18.738;2023-03-31T03:15:32;99292.28;;;9.62;87.43
51245;BME280;37840;47.562;18.738;2023-03-31T03:17:58;99292.37;;;9.60;87.37
51245;BME280;37840;47.562;18.738;2023-03-31T03:20:24;99291.44;;;9.61;87.15
51245;BME280;37840;47.562;18.738;2023-03-31T03:22:50;99287.53;;;9.54;87.25
51245;BME280;37840;47.562;18.738;2023-03-31T03:25:17;99290.53;;;9.49;87.28
51245;BME280;37840;47.562;18.738;2023-03-31T03:27:45;99289.19;;;9.44;87.53
51245;BME280;37840;47.562;18.738;2023-03-31T03:30:12;99289.06;;;9.45;87.49
51245;BME280;37840;47.562;18.738;2023-03-31T03:32:38;99293.44;;;9.46;87.52
51245;BME280;37840;47.562;18.738;2023-03-31T03:35:06;99291.72;;;9.45;87.35
51245;BME280;37840;47.562;18.738;2023-03-31T03:37:32;99293.25;;;9.36;87.81
51245;BME280;37840;47.562;18.738;2023-03-31T03:39:58;99293.03;;;9.39;87.59
51245;BME280;37840;47.562;18.738;2023-03-31T03:42:25;99290.00;;;9.33;87.87
51245;BME280;37840;47.562;18.738;2023-03-31T03:44:51;99283.38;;;9.38;87.81
51245;BME280;37840;47.562;18.738;2023-03-31T03:47:16;99286.75;;;9.41;87.49
51245;BME280;37840;47.562;18.738;2023-03-31T03:49:42;99289.50;;;9.39;87.21
51245;BME280;37840;47.562;18.738;2023-03-31T03:52:08;99286.34;;;9.34;87.29
51245;BME280;37840;47.562;18.738;2023-03-31T03:54:35;99285.63;;;9.32;87.30
51245;BME280;37840;47.562;18.738;2023-03-31T03:57:00;99290.09;;;9.31;87.19
51245;BME280;37840;47.562;18.738;2023-03-31T03:59:26;99291.28;;;9.27;87.04
51245;BME280;37840;47.562;18.738;2023-03-31T04:01:52;99285.44;;;9.22;87.13
51245;BME280;37840;47.562;18.738;2023-03-31T04:04:18;99282.69;;;9.24;87.23
51245;BME280;37840;47.562;18.738;2023-03-31T04:06:44;99284.50;;;9.23;87.27
51245;BME280;37840;47.562;18.738;2023-03-31T04:09:10;99286.31;;;9.23;87.23
51245;BME280;37840;47.562;18.738;2023-03-31T04:11:36;99286.13;;;9.13;84.74
51245;BME280;37840;47.562;18.738;2023-03-31T04:14:02;99282.00;;;9.09;83.47
51245;BME280;37840;47.562;18.738;2023-03-31T04:16:28;99282.66;;;9.00;83.35
51245;BME280;37840;47.562;18.738;2023-03-31T04:18:55;99283.63;;;8.86;83.80
51245;BME280;37840;47.562;18.738;2023-03-31T04:21:23;99281.88;;;8.73;83.57
51245;BME280;37840;47.562;18.738;2023-03-31T04:23:51;99288.56;;;8.66;84.36
51245;BME280;37840;47.562;18.738;2023-03-31T04:26:25;99284.84;;;8.69;84.25
51245;BME280;37840;47.562;18.738;2023-03-31T04:28:58;99278.59;;;8.57;84.43
51245;BME280;37840;47.562;18.738;2023-03-31T04:31:26;99285.37;;;8.61;84.94
51245;BME280;37840;47.562;18.738;2023-03-31T04:33:53;99283.06;;;8.56;85.33
51245;BME280;37840;47.562;18.738;2023-03-31T04:36:20;99285.28;;;8.50;85.80
51245;BME280;37840;47.562;18.738;2023-03-31T04:38:49;99281.59;;;8.52;85.42
51245;BME280;37840;47.562;18.738;2023-03-31T04:41:16;99277.44;;;8.48;85.61
51245;BME280;37840;47.562;18.738;2023-03-31T04:43:42;99268.94;;;8.56;86.34
51245;BME280;37840;47.562;18.738;2023-03-31T04:46:08;99264.19;;;8.61;86.58
51245;BME280;37840;47.562;18.738;2023-03-31T04:48:34;99265.09;;;8.73;87.30
51245;BME280;37840;47.562;18.738;2023-03-31T04:51:01;99262.44;;;8.86;87.92
51245;BME280;37840;47.562;18.738;2023-03-31T04:56:03;99264.84;;;9.02;87.37
51245;BME280;37840;47.562;18.738;2023-03-31T04:58:28;99263.34;;;8.97;86.75
51245;BME280;37840;47.562;18.738;2023-03-31T05:00:54;99259.56;;;8.89;84.58
51245;BME280;37840;47.562;18.738;2023-03-31T05:03:20;99257.34;;;8.83;82.74
51245;BME280;37840;47.562;18.738;2023-03-31T05:05:46;99251.31;;;8.81;82.20
51245;BME280;37840;47.562;18.738;2023-03-31T05:08:12;99250.94;;;8.61;82.73
51245;BME280;37840;47.562;18.738;2023-03-31T05:10:38;99253.44;;;8.63;83.61
51245;BME280;37840;47.562;18.738;2023-03-31T05:13:04;99238.94;;;8.68;84.16
51245;BME280;37840;47.562;18.738;2023-03-31T05:15:30;99250.78;;;8.75;84.54
51245;BME280;37840;47.562;18.738;2023-03-31T05:17:57;99248.44;;;8.84;84.65
51245;BME280;37840;47.562;18.738;2023-03-31T05:20:23;99247.06;;;8.91;84.49
51245;BME280;37840;47.562;18.738;2023-03-31T05:22:49;99243.28;;;9.06;84.65
51245;BME280;37840;47.562;18.738;2023-03-31T05:25:16;99244.41;;;9.15;84.92
51245;BME280;37840;47.562;18.738;2023-03-31T05:27:46;99240.81;;;9.16;85.46
51245;BME280;37840;47.562;18.738;2023-03-31T05:30:13;99238.69;;;9.32;85.52
51245;BME280;37840;47.562;18.738;2023-03-31T05:32:39;99235.88;;;9.47;85.23
51245;BME280;37840;47.562;18.738;2023-03-31T05:35:05;99231.97;;;9.64;85.20
51245;BME280;37840;47.562;18.738;2023-03-31T05:37:32;99233.06;;;9.72;85.39
51245;BME280;37840;47.562;18.738;2023-03-31T05:39:58;99236.75;;;9.94;84.64
51245;BME280;37840;47.562;18.738;2023-03-31T05:42:24;99229.28;;;10.10;83.54
51245;BME280;37840;47.562;18.738;2023-03-31T05:44:50;99233.31;;;10.27;82.75
51245;BME280;37840;47.562;18.738;2023-03-31T05:47:16;99230.44;;;10.42;81.57
51245;BME280;37840;47.562;18.738;2023-03-31T05:49:42;99234.19;;;10.50;81.73
51245;BME280;37840;47.562;18.738;2023-03-31T05:52:09;99239.13;;;10.66;80.12
51245;BME280;37840;47.562;18.738;2023-03-31T05:54:35;99236.97;;;10.49;79.93
51245;BME280;37840;47.562;18.738;2023-03-31T05:57:01;99243.19;;;10.25;82.93
51245;BME280;37840;47.562;18.738;2023-03-31T05:59:27;99232.31;;;10.17;83.76
51245;BME280;37840;47.562;18.738;2023-03-31T06:01:53;99235.44;;;10.11;84.14
51245;BME280;37840;47.562;18.738;2023-03-31T06:04:19;99235.19;;;10.03;84.23
51245;BME280;37840;47.562;18.738;2023-03-31T06:06:45;99236.78;;;10.16;84.59
51245;BME280;37840;47.562;18.738;2023-03-31T06:09:15;99245.06;;;10.36;83.72
51245;BME280;37840;47.562;18.738;2023-03-31T06:11:42;99241.53;;;10.58;82.38
51245;BME280;37840;47.562;18.738;2023-03-31T06:14:08;99233.09;;;10.75;81.80
51245;BME280;37840;47.562;18.738;2023-03-31T06:16:34;99234.75;;;10.99;81.04
51245;BME280;37840;47.562;18.738;2023-03-31T06:19:00;99234.16;;;11.28;81.68
51245;BME280;37840;47.562;18.738;2023-03-31T06:21:26;99228.28;;;11.45;79.72
51245;BME280;37840;47.562;18.738;2023-03-31T06:23:52;99233.72;;;11.76;79.18
51245;BME280;37840;47.562;18.738;2023-03-31T06:26:20;99223.87;;;12.09;78.19
51245;BME280;37840;47.562;18.738;2023-03-31T06:28:48;99225.59;;;12.81;75.01
51245;BME280;37840;47.562;18.738;2023-03-31T06:31:16;99217.09;;;14.04;69.94
51245;BME280;37840;47.562;18.738;2023-03-31T06:33:43;99219.72;;;15.34;64.64
51245;BME280;37840;47.562;18.738;2023-03-31T06:36:09;99220.16;;;16.54;59.31
51245;BME280;37840;47.562;18.738;2023-03-31T06:38:37;99224.25;;;17.08;57.09
51245;BME280;37840;47.562;18.738;2023-03-31T06:41:04;99221.16;;;17.54;56.06
51245;BME280;37840;47.562;18.738;2023-03-31T06:43:31;99214.59;;;17.65;54.31
51245;BME280;37840;47.562;18.738;2023-03-31T06:45:57;99214.38;;;18.40;52.77
51245;BME280;37840;47.562;18.738;2023-03-31T06:48:24;99214.56;;;18.86;50.83
51245;BME280;37840;47.562;18.738;2023-03-31T06:50:52;99211.03;;;19.71;49.22
51245;BME280;37840;47.562;18.738;2023-03-31T06:53:19;99214.63;;;20.69;46.11
51245;BME280;37840;47.562;18.738;2023-03-31T06:55:46;99218.06;;;20.93;45.03
51245;BME280;37840;47.562;18.738;2023-03-31T06:58:13;99214.59;;;20.99;44.68
51245;BME280;37840;47.562;18.738;2023-03-31T07:00:39;99212.97;;;21.56;42.83
51245;BME280;37840;47.562;18.738;2023-03-31T07:03:05;99205.94;;;22.33;42.09
51245;BME280;37840;47.562;18.738;2023-03-31T07:05:33;99207.00;;;22.10;43.18
51245;BME280;37840;47.562;18.738;2023-03-31T07:08:00;99195.41;;;21.95;41.96
51245;BME280;37840;47.562;18.738;2023-03-31T07:10:28;99195.88;;;21.34;43.59
51245;BME280;37840;47.562;18.738;2023-03-31T07:12:54;99189.56;;;20.46;47.21
51245;BME280;37840;47.562;18.738;2023-03-31T07:15:21;99189.66;;;20.52;47.58
51245;BME280;37840;47.562;18.738;2023-03-31T07:17:47;99190.06;;;20.64;48.61
51245;BME280;37840;47.562;18.738;2023-03-31T07:20:17;99198.69;;;21.26;46.59
51245;BME280;37840;47.562;18.738;2023-03-31T07:22:44;99187.38;;;22.02;45.19
51245;BME280;37840;47.562;18.738;2023-03-31T07:25:12;99189.88;;;22.31;44.21
51245;BME280;37840;47.562;18.738;2023-03-31T07:27:39;99194.72;;;22.77;42.19
51245;BME280;37840;47.562;18.738;2023-03-31T07:30:23;99189.25;;;23.12;42.28
51245;BME280;37840;47.562;18.738;2023-03-31T07:32:50;99186.66;;;23.66;42.23
51245;BME280;37840;47.562;18.738;2023-03-31T07:35:17;99185.84;;;23.92;40.71
51245;BME280;37840;47.562;18.738;2023-03-31T07:37:45;99184.66;;;23.13;41.80
51245;BME280;37840;47.562;18.738;2023-03-31T07:40:17;99181.31;;;21.78;43.85
51245;BME280;37840;47.562;18.738;2023-03-31T07:42:43;99174.97;;;20.70;46.89
51245;BME280;37840;47.562;18.738;2023-03-31T07:45:11;99175.03;;;19.10;51.34
51245;BME280;37840;47.562;18.738;2023-03-31T07:47:38;99179.16;;;18.02;56.15
51245;BME280;37840;47.562;18.738;2023-03-31T07:50:05;99178.63;;;18.07;56.18
51245;BME280;37840;47.562;18.738;2023-03-31T07:52:32;99181.47;;;17.81;56.43
51245;BME280;37840;47.562;18.738;2023-03-31T07:54:58;99189.91;;;17.61;57.42
51245;BME280;37840;47.562;18.738;2023-03-31T07:57:25;99171.41;;;17.33;57.77
51245;BME280;37840;47.562;18.738;2023-03-31T07:59:51;99167.16;;;16.64;59.82
51245;BME280;37840;47.562;18.738;2023-03-31T08:02:17;99167.56;;;16.08;62.91
51245;BME280;37840;47.562;18.738;2023-03-31T08:04:44;99159.22;;;16.12;61.97
51245;BME280;37840;47.562;18.738;2023-03-31T08:07:11;99162.53;;;16.05;63.02
51245;BME280;37840;47.562;18.738;2023-03-31T08:09:38;99146.47;;;15.79;62.73
51245;BME280;37840;47.562;18.738;2023-03-31T08:12:05;99149.47;;;16.02;61.53
51245;BME280;37840;47.562;18.738;2023-03-31T08:14:31;99146.53;;;16.22;60.71
51245;BME280;37840;47.562;18.738;2023-03-31T08:16:58;99145.19;;;16.18;60.54
51245;BME280;37840;47.562;18.738;2023-03-31T08:19:25;99143.19;;;16.20;62.22
51245;BME280;37840;47.562;18.738;2023-03-31T08:21:52;99138.75;;;16.10;63.18
51245;BME280;37840;47.562;18.738;2023-03-31T08:24:18;99134.41;;;16.09;62.88
51245;BME280;37840;47.562;18.738;2023-03-31T08:26:44;99131.25;;;16.14;62.61
51245;BME280;37840;47.562;18.738;2023-03-31T08:29:11;99127.09;;;15.94;64.79
51245;BME280;37840;47.562;18.738;2023-03-31T08:31:37;99117.47;;;16.09;64.32
51245;BME280;37840;47.562;18.738;2023-03-31T08:34:04;99115.00;;;16.16;66.44
51245;BME280;37840;47.562;18.738;2023-03-31T08:36:30;99114.34;;;15.87;71.36
51245;BME280;37840;47.562;18.738;2023-03-31T08:38:56;99106.75;;;16.09;67.42
51245;BME280;37840;47.562;18.738;2023-03-31T08:42:00;99107.53;;;16.36;63.90
51245;BME280;37840;47.562;18.738;2023-03-31T08:44:38;99102.66;;;15.97;69.37
51245;BME280;37840;47.562;18.738;2023-03-31T08:47:12;99098.75;;;16.17;68.12
51245;BME280;37840;47.562;18.738;2023-03-31T08:49:44;99095.56;;;16.22;65.22
51245;BME280;37840;47.562;18.738;2023-03-31T08:52:15;99097.16;;;16.06;72.09
51245;BME280;37840;47.562;18.738;2023-03-31T08:54:45;99086.94;;;15.76;71.10
51245;BME280;37840;47.562;18.738;2023-03-31T08:57:27;99080.00;;;15.91;69.26
51245;BME280;37840;47.562;18.738;2023-03-31T08:59:56;99068.03;;;16.12;66.72
51245;BME280;37840;47.562;18.738;2023-03-31T09:02:59;99063.69;;;16.19;68.45
51245;BME280;37840;47.562;18.738;2023-03-31T09:05:34;99063.31;;;16.05;64.76
51245;BME280;37840;47.562;18.738;2023-03-31T09:08:25;99065.06;;;15.88;63.45
51245;BME280;37840;47.562;18.738;2023-03-31T09:11:09;99057.34;;;16.20;65.73
51245;BME280;37840;47.562;18.738;2023-03-31T09:19:00;99052.59;;;16.64;63.15
51245;BME280;37840;47.562;18.738;2023-03-31T09:21:30;99042.03;;;16.71;64.20
51245;BME280;37840;47.562;18.738;2023-03-31T09:24:09;99037.84;;;16.68;64.36
51245;BME280;37840;47.562;18.738;2023-03-31T09:26:40;99043.03;;;16.54;66.30
51245;BME280;37840;47.562;18.738;2023-03-31T09:29:16;99040.34;;;16.54;63.98
51245;BME280;37840;47.562;18.738;2023-03-31T09:31:46;99023.56;;;16.76;63.19
51245;BME280;37840;47.562;18.738;2023-03-31T09:34:24;99022.94;;;16.90;65.63
51245;BME280;37840;47.562;18.738;2023-03-31T09:36:51;99016.25;;;17.11;59.25
51245;BME280;37840;47.562;18.738;2023-03-31T09:39:17;99018.22;;;17.25;61.60
51245;BME280;37840;47.562;18.738;2023-03-31T09:41:45;99009.16;;;17.35;62.68
51245;BME280;37840;47.562;18.738;2023-03-31T09:44:30;99005.44;;;17.44;61.36
51245;BME280;37840;47.562;18.738;2023-03-31T09:46:59;98992.28;;;17.65;58.60
51245;BME280;37840;47.562;18.738;2023-03-31T09:49:33;98997.47;;;17.75;59.57
51245;BME280;37840;47.562;18.738;2023-03-31T09:52:03;98998.47;;;17.74;59.37
51245;BME280;37840;47.562;18.738;2023-03-31T09:54:35;98991.91;;;17.04;60.66
51245;BME280;37840;47.562;18.738;2023-03-31T09:57:14;98982.16;;;16.95;63.52
51245;BME280;37840;47.562;18.738;2023-03-31T09:59:50;98986.00;;;16.76;65.00
51245;BME280;37840;47.562;18.738;2023-03-31T10:02:32;98979.31;;;16.88;64.77
51245;BME280;37840;47.562;18.738;2023-03-31T10:05:01;98979.63;;;17.02;66.59
51245;BME280;37840;47.562;18.738;2023-03-31T10:07:27;98975.13;;;17.02;65.42
51245;BME280;37840;47.562;18.738;2023-03-31T10:09:53;98968.22;;;17.08;66.15
51245;BME280;37840;47.562;18.738;2023-03-31T10:12:22;98962.53;;;17.11;66.48
51245;BME280;37840;47.562;18.738;2023-03-31T10:14:51;98955.81;;;16.99;67.61
51245;BME280;37840;47.562;18.738;2023-03-31T10:17:23;98946.06;;;16.98;66.49
51245;BME280;37840;47.562;18.738;2023-03-31T10:19:55;98947.91;;;16.97;65.31
51245;BME280;37840;47.562;18.738;2023-03-31T10:24:50;98938.16;;;16.71;69.16
51245;BME280;37840;47.562;18.738;2023-03-31T10:27:26;98937.84;;;16.66;67.42
51245;BME280;37840;47.562;18.738;2023-03-31T10:30:03;98940.16;;;16.53;63.04
51245;BME280;37840;47.562;18.738;2023-03-31T10:32:36;98936.66;;;16.61;64.99
51245;BME280;37840;47.562;18.738;2023-03-31T10:37:57;98931.09;;;16.79;64.40
51245;BME280;37840;47.562;18.738;2023-03-31T10:40:26;98922.56;;;17.00;65.01
51245;BME280;37840;47.562;18.738;2023-03-31T10:43:16;98922.00;;;17.29;62.69
51245;BME280;37840;47.562;18.738;2023-03-31T10:45:58;98922.09;;;17.52;62.36
51245;BME280;37840;47.562;18.738;2023-03-31T10:48:30;98911.09;;;17.70;60.62
51245;BME280;37840;47.562;18.738;2023-03-31T10:51:03;98905.00;;;17.84;58.28
51245;BME280;37840;47.562;18.738;2023-03-31T10:53:38;98908.69;;;17.91;61.55
51245;BME280;37840;47.562;18.738;2023-03-31T10:56:13;98906.81;;;17.92;60.39
51245;BME280;37840;47.562;18.738;2023-03-31T11:29:02;98840.63;;;17.51;60.88
51245;BME280;37840;47.562;18.738;2023-03-31T11:31:50;98832.09;;;17.40;59.36
51245;BME280;37840;47.562;18.738;2023-03-31T11:42:33;98807.97;;;17.63;61.24
51245;BME280;37840;47.562;18.738;2023-03-31T11:45:20;98801.38;;;17.65;61.51
51245;BME280;37840;47.562;18.738;2023-03-31T11:47:50;98807.78;;;17.64;58.83
51245;BME280;37840;47.562;18.738;2023-03-31T11:50:21;98801.94;;;17.61;59.78
51245;BME280;37840;47.562;18.738;2023-03-31T11:52:56;98797.88;;;17.65;59.35
51245;BME280;37840;47.562;18.738;2023-03-31T11:55:26;98790.97;;;17.70;59.33
51245;BME280;37840;47.562;18.738;2023-03-31T12:03:55;98778.88;;;17.35;58.66
51245;BME280;37840;47.562;18.738;2023-03-31T12:06:28;98764.22;;;17.15;58.16
51245;BME280;37840;47.562;18.738;2023-03-31T12:11:55;98747.59;;;17.42;59.55
51245;BME280;37840;47.562;18.738;2023-03-31T12:17:14;98743.28;;;17.64;58.75
51245;BME280;37840;47.562;18.738;2023-03-31T12:22:22;98748.88;;;17.78;58.99
51245;BME280;37840;47.562;18.738;2023-03-31T12:24:51;98753.06;;;17.80;56.46
51245;BME280;37840;47.562;18.738;2023-03-31T12:27:39;98758.13;;;17.83;57.44
51245;BME280;37840;47.562;18.738;2023-03-31T12:30:12;98761.66;;;17.76;58.12
51245;BME280;37840;47.562;18.738;2023-03-31T12:32:43;98743.87;;;17.75;59.20
51245;BME280;37840;47.562;18.738;2023-03-31T12:35:15;98739.69;;;17.95;58.95
51245;BME280;37840;47.562;18.738;2023-03-31T12:37:56;98731.56;;;18.03;56.86
51245;BME280;37840;47.562;18.738;2023-03-31T12:49:01;98707.25;;;17.97;56.83
51245;BME280;37840;47.562;18.738;2023-03-31T12:59:35;98689.97;;;17.68;57.29
51245;BME280;37840;47.562;18.738;2023-03-31T13:04:37;98687.03;;;17.55;58.61
51245;BME280;37840;47.562;18.738;2023-03-31T13:07:07;98678.81;;;17.56;58.46
51245;BME280;37840;47.562;18.738;2023-03-31T13:09:48;98665.72;;;17.53;58.21
51245;BME280;37840;47.562;18.738;2023-03-31T13:12:20;98661.19;;;17.30;59.02
51245;BME280;37840;47.562;18.738;2023-03-31T13:14:49;98651.09;;;17.32;58.49
51245;BME280;37840;47.562;18.738;2023-03-31T13:19:50;98634.47;;;17.06;58.37
51245;BME280;37840;47.562;18.738;2023-03-31T13:22:34;98635.97;;;16.85;58.77
51245;BME280;37840;47.562;18.738;2023-03-31T13:25:29;98633.47;;;16.76;59.55
51245;BME280;37840;47.562;18.738;2023-03-31T13:28:08;98627.69;;;16.56;59.30
51245;BME280;37840;47.562;18.738;2023-03-31T13:33:07;98617.62;;;16.58;59.83
51245;BME280;37840;47.562;18.738;2023-03-31T13:35:37;98607.59;;;16.51;60.59
51245;BME280;37840;47.562;18.738;2023-03-31T13:39:02;98613.94;;;16.50;60.28
51245;BME280;37840;47.562;18.738;2023-03-31T13:52:57;98592.19;;;16.45;60.71
51245;BME280;37840;47.562;18.738;2023-03-31T14:11:29;98542.03;;;16.46;60.10
51245;BME280;37840;47.562;18.738;2023-03-31T14:14:16;98530.72;;;16.59;60.12
51245;BME280;37840;47.562;18.738;2023-03-31T14:16:55;98521.47;;;16.61;59.46
51245;BME280;37840;47.562;18.738;2023-03-31T14:19:51;98509.47;;;16.72;59.95
51245;BME280;37840;47.562;18.738;2023-03-31T14:33:50;98489.41;;;16.91;57.00
51245;BME280;37840;47.562;18.738;2023-03-31T14:39:31;98476.81;;;16.91;57.79
51245;BME280;37840;47.562;18.738;2023-03-31T14:42:03;98487.22;;;16.95;58.08
51245;BME280;37840;47.562;18.738;2023-03-31T14:44:32;98478.59;;;16.99;57.52
51245;BME280;37840;47.562;18.738;2023-03-31T14:46:58;98472.22;;;17.00;57.32
51245;BME280;37840;47.562;18.738;2023-03-31T14:52:00;98471.78;;;17.11;56.51
51245;BME280;37840;47.562;18.738;2023-03-31T14:54:26;98471.78;;;17.11;56.30
51245;BME280;37840;47.562;18.738;2023-03-31T14:56:54;98477.34;;;17.10;56.96
51245;BME280;37840;47.562;18.738;2023-03-31T14:59:25;98471.13;;;17.09;55.80
51245;BME280;37840;47.562;18.738;2023-03-31T15:01:53;98481.12;;;17.01;55.97
51245;BME280;37840;47.562;18.738;2023-03-31T15:04:23;98483.50;;;16.96;56.67
51245;BME280;37840;47.562;18.738;2023-03-31T15:06:50;98479.69;;;16.90;57.04
51245;BME280;37840;47.562;18.738;2023-03-31T15:09:29;98479.94;;;16.80;55.78
51245;BME280;37840;47.562;18.738;2023-03-31T15:12:00;98470.91;;;16.73;57.47
51245;BME280;37840;47.562;18.738;2023-03-31T15:14:29;98455.47;;;16.75;58.31
51245;BME280;37840;47.562;18.738;2023-03-31T15:16:55;98449.53;;;16.80;58.23
51245;BME280;37840;47.562;18.738;2023-03-31T15:19:29;98440.56;;;16.73;58.37
51245;BME280;37840;47.562;18.738;2023-03-31T15:21:57;98439.75;;;16.64;58.35
51245;BME280;37840;47.562;18.738;2023-03-31T15:24:30;98436.97;;;16.57;57.90
51245;BME280;37840;47.562;18.738;2023-03-31T15:27:09;98432.72;;;16.63;58.42
51245;BME280;37840;47.562;18.738;2023-03-31T15:29:44;98432.69;;;16.48;58.28
51245;BME280;37840;47.562;18.738;2023-03-31T15:32:25;98424.16;;;16.44;57.90
51245;BME280;37840;47.562;18.738;2023-03-31T15:34:53;98423.81;;;16.47;58.09
51245;BME280;37840;47.562;18.738;2023-03-31T15:37:42;98413.63;;;16.43;56.92
51245;BME280;37840;47.562;18.738;2023-03-31T15:40:20;98415.16;;;16.37;56.37
51245;BME280;37840;47.562;18.738;2023-03-31T15:42:48;98400.06;;;16.36;56.57
51245;BME280;37840;47.562;18.738;2023-03-31T15:47:52;98386.00;;;16.11;55.54
51245;BME280;37840;47.562;18.738;2023-03-31T15:50:23;98383.38;;;16.03;54.66
51245;BME280;37840;47.562;18.738;2023-03-31T15:52:54;98385.84;;;16.04;54.72
51245;BME280;37840;47.562;18.738;2023-03-31T15:55:26;98389.28;;;15.98;55.31
51245;BME280;37840;47.562;18.738;2023-03-31T15:57:55;98384.91;;;15.97;56.31
51245;BME280;37840;47.562;18.738;2023-03-31T16:02:57;98389.88;;;15.77;58.93
51245;BME280;37840;47.562;18.738;2023-03-31T16:08:02;98393.25;;;15.63;59.83
51245;BME280;37840;47.562;18.738;2023-03-31T16:10:29;98395.28;;;15.61;60.22
51245;BME280;37840;47.562;18.738;2023-03-31T16:13:01;98398.25;;;15.66;60.14
51245;BME280;37840;47.562;18.738;2023-03-31T16:15:40;98409.50;;;15.61;59.86
51245;BME280;37840;47.562;18.738;2023-03-31T16:18:21;98408.03;;;15.59;58.88
51245;BME280;37840;47.562;18.738;2023-03-31T16:20:55;98401.72;;;15.43;58.79